createdAt,value
2018-09-06T00:01:15.833Z,101807.23
2018-09-06T00:03:44.855Z,101805.89
2018-09-06T00:06:13.603Z,101803.55
2018-09-06T00:08:42.623Z,101799.98
2018-09-06T00:11:11.595Z,101804.53
2018-09-06T00:13:40.322Z,101803.67
2018-09-06T00:16:09.286Z,101802.80
2018-09-06T00:18:38.142Z,101796.45
2018-09-06T00:21:07.076Z,101806.37
2018-09-06T00:23:35.862Z,101799.63
2018-09-06T00:26:04.862Z,101799.63
2018-09-06T00:28:33.682Z,101796.55
2018-09-06T00:31:02.576Z,101794.33
2018-09-06T00:33:31.293Z,101798.89
2018-09-06T00:36:00.327Z,101797.55
2018-09-06T00:38:29.472Z,101795.81
2018-09-06T00:40:58.483Z,101801.20
2018-09-06T00:43:27.511Z,101804.38
2018-09-06T00:45:56.450Z,101804.38
2018-09-06T00:48:25.170Z,101812.95
2018-09-06T00:50:54.349Z,101811.73
2018-09-06T00:53:23.158Z,101814.43
2018-09-06T00:55:52.196Z,101813.56
2018-09-06T00:58:21.066Z,101818.48
2018-09-06T01:00:49.815Z,101810.48
2018-09-06T01:03:18.740Z,101811.35
2018-09-06T01:05:47.534Z,101811.00
2018-09-06T01:08:16.328Z,101814.53
2018-09-06T01:10:45.036Z,101809.14
2018-09-06T01:13:14.003Z,101805.61
2018-09-06T01:15:42.937Z,101804.73
2018-09-06T01:18:11.837Z,101800.31
2018-09-06T01:20:40.635Z,101798.96
2018-09-06T01:23:09.470Z,101802.05
2018-09-06T01:25:43.354Z,101791.36
2018-09-06T01:28:12.438Z,101790.00
2018-09-06T01:30:41.339Z,101787.21
2018-09-06T01:33:10.593Z,101793.09
2018-09-06T01:35:43.783Z,101791.73
2018-09-06T01:38:12.509Z,101793.47
2018-09-06T01:40:41.285Z,101796.17
2018-09-06T01:43:10.048Z,101791.73
2018-09-06T01:45:38.766Z,101788.56
2018-09-06T01:48:07.705Z,101789.91
2018-09-06T01:50:36.421Z,101787.70
2018-09-06T01:53:05.244Z,101784.52
2018-09-06T01:55:34.181Z,101789.42
2018-09-06T01:58:03.184Z,101782.69
2018-09-06T02:00:32.107Z,101779.98
2018-09-06T02:03:01.017Z,101778.12
2018-09-06T02:05:31.035Z,101775.42
2018-09-06T02:08:00.489Z,101774.95
2018-09-06T02:10:29.396Z,101767.47
2018-09-06T02:12:58.192Z,101773.25
2018-09-06T02:15:26.869Z,101775.56
2018-09-06T02:17:55.992Z,101772.37
2018-09-06T02:20:24.889Z,101774.59
2018-09-06T02:22:53.820Z,101768.69
2018-09-06T02:25:22.777Z,101775.08
2018-09-06T02:27:51.777Z,101766.13
2018-09-06T02:30:20.713Z,101767.86
2018-09-06T02:32:49.556Z,101765.64
2018-09-06T02:35:18.386Z,101770.55
2018-09-06T02:37:47.298Z,101769.30
2018-09-06T02:40:21.382Z,101771.12
2018-09-06T02:42:50.325Z,101766.60
2018-09-06T02:45:19.198Z,101769.30
2018-09-06T02:47:54.038Z,101764.52
2018-09-06T02:50:28.080Z,101765.00
2018-09-06T02:52:57.671Z,101765.48
2018-09-06T02:55:27.938Z,101762.79
2018-09-06T02:57:57.009Z,101768.70
2018-09-06T03:00:28.765Z,101762.44
2018-09-06T03:02:57.750Z,101770.05
2018-09-06T03:05:27.450Z,101768.31
2018-09-06T03:07:57.350Z,101778.23
2018-09-06T03:10:29.590Z,101778.71
2018-09-06T03:12:58.453Z,101772.97
2018-09-06T03:15:27.476Z,101770.75
2018-09-06T03:17:56.273Z,101779.70
2018-09-06T03:20:25.158Z,101776.28
2018-09-06T03:22:54.065Z,101774.92
2018-09-06T03:25:22.787Z,101777.11
2018-09-06T03:27:51.648Z,101773.20
2018-09-06T03:30:20.649Z,101774.06
2018-09-06T03:32:49.588Z,101774.55
2018-09-06T03:35:18.524Z,101780.39
2018-09-06T03:37:47.364Z,101776.82
2018-09-06T03:40:16.362Z,101785.77
2018-09-06T03:42:45.200Z,101788.95
2018-09-06T03:45:14.146Z,101785.42
2018-09-06T03:47:42.857Z,101781.86
2018-09-06T03:50:11.562Z,101785.91
2018-09-06T03:52:40.383Z,101782.83
2018-09-06T03:55:09.269Z,101783.21
2018-09-06T03:57:38.118Z,101778.30
2018-09-06T04:00:07.262Z,101776.95
2018-09-06T04:02:36.156Z,101776.47
2018-09-06T04:05:05.417Z,101768.86
2018-09-06T04:07:34.529Z,101767.52
2018-09-06T04:10:03.667Z,101761.64
2018-09-06T04:12:32.464Z,101763.47
2018-09-06T04:15:01.216Z,101766.65
2018-09-06T04:17:30.035Z,101774.73
2018-09-06T04:19:58.973Z,101777.44
2018-09-06T04:22:27.865Z,101779.65
2018-09-06T04:24:56.705Z,101778.17
2018-09-06T04:27:25.697Z,101772.42
2018-09-06T04:29:54.491Z,101777.34
2018-09-06T04:32:23.470Z,101771.94
2018-09-06T04:34:52.285Z,101775.98
2018-09-06T04:37:21.000Z,101780.86
2018-09-06T04:39:49.809Z,101777.81
2018-09-06T04:42:18.745Z,101780.52
2018-09-06T04:44:47.529Z,101782.22
2018-09-06T04:47:16.692Z,101779.03
2018-09-06T04:49:45.600Z,101776.47
2018-09-06T04:52:14.321Z,101785.42
2018-09-06T04:54:43.205Z,101784.43
2018-09-06T04:57:12.030Z,101786.26
2018-09-06T04:59:40.997Z,101780.86
2018-09-06T05:02:10.124Z,101782.73
2018-09-06T05:04:39.173Z,101786.26
2018-09-06T05:07:08.031Z,101781.38
2018-09-06T05:09:36.785Z,101784.56
2018-09-06T05:12:06.484Z,101780.03
2018-09-06T05:14:35.216Z,101785.91
2018-09-06T05:17:04.094Z,101781.86
2018-09-06T05:19:32.877Z,101753.22
2018-09-06T05:22:01.650Z,101784.56
2018-09-06T05:24:30.516Z,101782.34
2018-09-06T05:26:59.260Z,101779.17
2018-09-06T05:29:28.010Z,101777.81
2018-09-06T05:31:56.797Z,101778.30
2018-09-06T05:34:25.556Z,101777.81
2018-09-06T05:36:54.386Z,101772.52
2018-09-06T05:39:23.110Z,101770.70
2018-09-06T05:41:51.914Z,101775.13
2018-09-06T05:44:20.616Z,101783.21
2018-09-06T05:46:49.407Z,101783.69
2018-09-06T05:49:18.116Z,101780.13
2018-09-06T05:51:46.870Z,101782.34
2018-09-06T05:54:15.561Z,101787.61
2018-09-06T05:56:44.290Z,101781.38
2018-09-06T05:59:13.134Z,101781.86
2018-09-06T06:01:41.860Z,101786.26
2018-09-06T06:04:10.705Z,101782.22
2018-09-06T06:06:39.444Z,101784.91
2018-09-06T06:09:09.434Z,101781.73
2018-09-06T06:11:38.235Z,101787.54
2018-09-06T06:14:07.213Z,101790.72
2018-09-06T06:16:36.081Z,101788.02
2018-09-06T06:19:04.921Z,101784.43
2018-09-06T06:21:33.830Z,101784.91
2018-09-06T06:24:03.061Z,101783.98
2018-09-06T06:26:31.881Z,101783.08
2018-09-06T06:29:00.855Z,101781.73
2018-09-06T06:31:30.529Z,101782.63
2018-09-06T06:33:59.375Z,101778.59
2018-09-06T06:36:28.397Z,101781.16
2018-09-06T06:38:57.730Z,101784.72
2018-09-06T06:41:26.774Z,101779.80
2018-09-06T06:43:55.723Z,101777.97
2018-09-06T06:46:24.669Z,101769.89
2018-09-06T06:48:53.510Z,101765.84
2018-09-06T06:51:22.453Z,101767.58
2018-09-06T06:53:51.377Z,101771.01
2018-09-06T06:56:20.399Z,101770.62
2018-09-06T06:58:49.659Z,101775.92
2018-09-06T07:01:18.969Z,101770.14
2018-09-06T07:03:48.031Z,101773.22
2018-09-06T07:06:16.953Z,101777.75
2018-09-06T07:08:45.815Z,101775.44
2018-09-06T07:11:14.723Z,101775.44
2018-09-06T07:13:43.710Z,101779.83
2018-09-06T07:16:12.609Z,101781.56
2018-09-06T07:18:41.669Z,101776.17
2018-09-06T07:21:10.784Z,101781.08
2018-09-06T07:23:39.949Z,101772.48
2018-09-06T07:26:08.746Z,101773.83
2018-09-06T07:28:37.667Z,101772.99
2018-09-06T07:31:06.591Z,101773.83
2018-09-06T07:33:35.705Z,101776.52
2018-09-06T07:36:04.630Z,101770.65
2018-09-06T07:38:33.562Z,101773.34
2018-09-06T07:41:02.650Z,101765.25
2018-09-06T07:43:31.497Z,101772.00
2018-09-06T07:46:00.481Z,101777.39
2018-09-06T07:48:29.370Z,101775.56
2018-09-06T07:50:58.145Z,101779.98
2018-09-06T07:53:27.047Z,101774.59
2018-09-06T07:55:55.938Z,101782.69
2018-09-06T07:58:25.137Z,101775.94
2018-09-06T08:00:54.088Z,101776.78
2018-09-06T08:03:22.970Z,101772.73
2018-09-06T08:05:51.907Z,101769.55
2018-09-06T08:08:20.811Z,101770.90
2018-09-06T08:10:49.918Z,101768.59
2018-09-06T08:13:18.936Z,101777.06
2018-09-06T08:15:47.942Z,101774.72
2018-09-06T08:18:16.890Z,101767.98
2018-09-06T08:20:45.935Z,101780.02
2018-09-06T08:23:15.003Z,101775.97
2018-09-06T08:25:43.998Z,101774.97
2018-09-06T08:28:12.910Z,101782.58
2018-09-06T08:30:41.985Z,101782.09
2018-09-06T08:33:11.178Z,101782.09
2018-09-06T08:35:39.950Z,101778.78
2018-09-06T08:38:08.930Z,101778.78
2018-09-06T08:40:37.940Z,101778.30
2018-09-06T08:43:07.035Z,101777.30
2018-09-06T08:45:35.931Z,101774.61
2018-09-06T08:48:05.166Z,101775.38
2018-09-06T08:50:34.019Z,101782.85
2018-09-06T08:53:03.109Z,101778.33
2018-09-06T08:55:32.103Z,101787.15
2018-09-06T08:58:01.199Z,101780.66
2018-09-06T09:00:30.113Z,101780.17
2018-09-06T09:02:59.164Z,101779.70
2018-09-06T09:05:28.030Z,101775.65
2018-09-06T09:07:57.023Z,101783.61
2018-09-06T09:10:26.215Z,101782.74
2018-09-06T09:12:55.351Z,101780.43
2018-09-06T09:15:24.258Z,101775.03
2018-09-06T09:17:53.376Z,101775.03
2018-09-06T09:20:22.520Z,101779.95
2018-09-06T09:22:51.388Z,101778.08
2018-09-06T09:25:20.272Z,101787.04
2018-09-06T09:27:49.267Z,101780.78
2018-09-06T09:30:18.093Z,101778.08
2018-09-06T09:32:47.194Z,101779.81
2018-09-06T09:35:16.277Z,101779.81
2018-09-06T09:37:45.345Z,101776.73
2018-09-06T09:40:14.424Z,101782.51
2018-09-06T09:42:43.255Z,101780.78
2018-09-06T09:45:12.022Z,101780.30
2018-09-06T09:47:41.049Z,101775.03
2018-09-06T09:50:10.031Z,101778.59
2018-09-06T09:52:39.066Z,101780.78
2018-09-06T09:55:08.119Z,101783.13
2018-09-06T09:57:38.050Z,101789.87
2018-09-06T10:00:06.972Z,101787.17
2018-09-06T10:02:41.189Z,101789.00
2018-09-06T10:05:15.614Z,101784.58
2018-09-06T10:07:49.691Z,101785.57
2018-09-06T10:10:18.677Z,101791.45
2018-09-06T10:12:47.772Z,101788.75
2018-09-06T10:15:16.714Z,101782.97
2018-09-06T10:17:45.803Z,101785.67
2018-09-06T10:20:14.853Z,101778.58
2018-09-06T10:22:43.726Z,101779.06
2018-09-06T10:25:12.744Z,101779.06
2018-09-06T10:27:41.715Z,101779.92
2018-09-06T10:30:10.706Z,101766.19
2018-09-06T10:32:39.776Z,101768.88
2018-09-06T10:35:08.983Z,101770.23
2018-09-06T10:37:37.910Z,101774.28
2018-09-06T10:40:06.942Z,101768.88
2018-09-06T10:42:35.908Z,101767.16
2018-09-06T10:45:05.222Z,101766.19
2018-09-06T10:47:34.108Z,101764.94
2018-09-06T10:50:02.995Z,101763.59
2018-09-06T10:52:31.775Z,101750.10
2018-09-06T10:55:00.790Z,101746.06
2018-09-06T10:57:29.770Z,101741.15
2018-09-06T10:59:58.653Z,101743.02
2018-09-06T11:02:28.021Z,101738.97
2018-09-06T11:04:57.001Z,101737.23
2018-09-06T11:07:26.049Z,101736.75
2018-09-06T11:09:54.893Z,101734.92
2018-09-06T11:12:23.734Z,101734.53
2018-09-06T11:14:52.819Z,101734.05
2018-09-06T11:17:21.662Z,101732.33
2018-09-06T11:19:50.510Z,101738.58
2018-09-06T11:22:19.698Z,101741.28
2018-09-06T11:24:48.850Z,101734.53
2018-09-06T11:27:17.946Z,101730.97
2018-09-06T11:29:46.942Z,101731.84
2018-09-06T11:32:15.985Z,101735.02
2018-09-06T11:34:44.833Z,101732.33
2018-09-06T11:37:13.864Z,101741.28
2018-09-06T11:39:42.768Z,101738.58
2018-09-06T11:42:11.745Z,101735.88
2018-09-06T11:44:40.717Z,101735.75
2018-09-06T11:47:09.760Z,101735.27
2018-09-06T11:49:38.722Z,101737.10
2018-09-06T11:52:08.380Z,101737.10
2018-09-06T11:54:37.364Z,101731.22
2018-09-06T11:57:06.515Z,101729.39
2018-09-06T11:59:35.687Z,101736.62
2018-09-06T12:02:04.683Z,101736.14
2018-09-06T12:04:33.937Z,101727.18
2018-09-06T12:07:03.003Z,101728.91
2018-09-06T12:09:31.816Z,101725.83
2018-09-06T12:12:00.850Z,101724.96
2018-09-06T12:14:29.840Z,101719.09
2018-09-06T12:16:58.793Z,101712.73
2018-09-06T12:19:27.843Z,101719.47
2018-09-06T12:21:56.743Z,101718.98
2018-09-06T12:24:27.131Z,101719.85
2018-09-06T12:26:56.009Z,101722.17
2018-09-06T12:29:25.059Z,101719.47
2018-09-06T12:31:54.074Z,101718.13
2018-09-06T12:34:23.041Z,101719.47
2018-09-06T12:36:51.915Z,101714.55
2018-09-06T12:39:21.460Z,101715.42
2018-09-06T12:41:50.499Z,101712.34
2018-09-06T12:44:19.437Z,101709.64
2018-09-06T12:46:48.385Z,101708.78
2018-09-06T12:49:17.406Z,101716.88
2018-09-06T12:51:46.624Z,101717.25
2018-09-06T12:54:15.719Z,101714.17
2018-09-06T12:56:44.627Z,101704.87
2018-09-06T12:59:13.728Z,101707.56
2018-09-06T13:01:42.647Z,101706.22
2018-09-06T13:04:11.537Z,101704.87
2018-09-06T13:06:40.433Z,101698.61
2018-09-06T13:09:09.717Z,101697.74
2018-09-06T13:11:39.155Z,101695.05
2018-09-06T13:14:08.230Z,101692.86
2018-09-06T13:16:37.025Z,101696.91
2018-09-06T13:19:08.323Z,101692.00
2018-09-06T13:21:37.388Z,101684.02
2018-09-06T13:24:07.337Z,101688.57
2018-09-06T13:26:36.227Z,101683.17
2018-09-06T13:29:05.447Z,101681.31
2018-09-06T13:31:34.492Z,101691.62
2018-09-06T13:34:03.778Z,101690.88
2018-09-06T13:36:32.812Z,101686.84
2018-09-06T13:39:01.761Z,101682.80
2018-09-06T13:41:31.139Z,101685.11
2018-09-06T13:43:59.926Z,101685.97
2018-09-06T13:46:28.936Z,101681.06
2018-09-06T13:48:58.172Z,101679.37
2018-09-06T13:51:27.854Z,101678.02
2018-09-06T13:53:56.846Z,101681.06
2018-09-06T13:56:25.850Z,101673.97
2018-09-06T13:58:54.894Z,101672.14
2018-09-06T14:01:23.894Z,101669.93
2018-09-06T14:03:52.912Z,101664.88
2018-09-06T14:06:22.115Z,101666.23
2018-09-06T14:08:51.291Z,101661.36
2018-09-06T14:11:20.280Z,101661.70
2018-09-06T14:13:49.265Z,101660.84
2018-09-06T14:16:18.281Z,101652.75
2018-09-06T14:18:47.101Z,101657.17
2018-09-06T14:21:16.112Z,101653.13
2018-09-06T14:23:45.297Z,101650.92
2018-09-06T14:26:14.305Z,101651.30
2018-09-06T14:28:43.340Z,101651.78
2018-09-06T14:31:12.673Z,101650.44
2018-09-06T14:33:41.758Z,101652.64
2018-09-06T14:36:10.680Z,101650.81
2018-09-06T14:38:39.641Z,101650.44
2018-09-06T14:41:08.782Z,101650.81
2018-09-06T14:48:33.683Z,101640.88
2018-09-06T14:51:02.850Z,101640.98
2018-09-06T14:53:31.767Z,101636.08
2018-09-06T14:56:00.629Z,101645.03
2018-09-06T14:58:29.451Z,101635.11
2018-09-06T15:00:58.215Z,101635.97
2018-09-06T15:03:27.470Z,101631.45
2018-09-06T15:05:56.305Z,101630.45
2018-09-06T15:08:25.205Z,101622.36
2018-09-06T15:10:54.305Z,101628.61
2018-09-06T15:13:23.338Z,101632.17
2018-09-06T15:15:52.341Z,101624.08
2018-09-06T15:18:21.350Z,101621.88
2018-09-06T15:20:50.383Z,101626.78
2018-09-06T15:23:19.528Z,101615.99
2018-09-06T15:25:48.607Z,101617.83
2018-09-06T15:28:17.606Z,101620.14
2018-09-06T15:30:46.603Z,101613.78
2018-09-06T15:33:15.869Z,101613.41
2018-09-06T15:35:44.903Z,101612.67
2018-09-06T15:38:13.981Z,101607.66
2018-09-06T15:40:42.999Z,101602.37
2018-09-06T15:43:12.084Z,101608.14
2018-09-06T15:45:41.179Z,101605.92
2018-09-06T15:48:10.259Z,101598.33
2018-09-06T15:50:39.140Z,101606.89
2018-09-06T15:53:08.430Z,101604.20
2018-09-06T15:55:37.675Z,101606.55
2018-09-06T15:58:06.932Z,101607.41
2018-09-06T16:00:36.163Z,101606.55
2018-09-06T16:03:05.416Z,101598.45
2018-09-06T16:05:34.481Z,101600.77
2018-09-06T16:08:04.478Z,101608.00
2018-09-06T16:10:33.638Z,101603.95
2018-09-06T16:13:02.760Z,101606.30
2018-09-06T16:15:31.673Z,101603.61
2018-09-06T16:18:00.685Z,101598.70
2018-09-06T16:20:29.587Z,101607.65
2018-09-06T16:22:58.865Z,101604.56
2018-09-06T16:25:28.008Z,101601.88
2018-09-06T16:27:57.168Z,101606.41
2018-09-06T16:30:26.447Z,101596.48
2018-09-06T16:32:56.992Z,101596.97
2018-09-06T16:35:26.116Z,101592.33
2018-09-06T16:37:54.971Z,101601.01
2018-09-06T16:40:23.989Z,101605.92
2018-09-06T16:42:53.059Z,101603.22
2018-09-06T16:45:22.157Z,101610.83
2018-09-06T16:47:51.071Z,101609.96
2018-09-06T16:50:20.240Z,101611.20
2018-09-06T16:52:49.094Z,101608.13
2018-09-06T16:55:18.263Z,101607.16
2018-09-06T16:57:47.346Z,101609.48
2018-09-06T17:00:16.296Z,101609.86
2018-09-06T17:02:45.177Z,101606.65
2018-09-06T17:05:14.195Z,101610.20
2018-09-06T17:07:43.170Z,101609.86
2018-09-06T17:10:12.312Z,101606.16
2018-09-06T17:12:41.483Z,101609.00
2018-09-06T17:15:10.553Z,101609.00
2018-09-06T17:17:39.601Z,101612.05
2018-09-06T17:20:08.946Z,101609.34
2018-09-06T17:22:37.997Z,101602.61
2018-09-06T17:25:07.263Z,101608.52
2018-09-06T17:27:36.148Z,101613.39
2018-09-06T17:30:05.318Z,101613.05
2018-09-06T17:32:34.288Z,101619.30
2018-09-06T17:35:03.689Z,101614.73
2018-09-06T17:37:32.547Z,101610.69
2018-09-06T17:40:01.333Z,101615.12
2018-09-06T17:42:31.740Z,101607.52
2018-09-06T17:45:00.563Z,101616.47
2018-09-06T17:47:29.459Z,101616.47
2018-09-06T17:49:58.255Z,101621.73
2018-09-06T17:52:27.105Z,101616.23
2018-09-06T17:54:55.900Z,101618.93
2018-09-06T17:57:24.679Z,101624.70
2018-09-06T17:59:53.464Z,101623.70
2018-09-06T18:02:22.351Z,101621.73
2018-09-06T18:04:51.251Z,101621.25
2018-09-06T18:07:20.105Z,101621.98
2018-09-06T18:09:48.966Z,101625.92
2018-09-06T18:12:17.851Z,101619.53
2018-09-06T18:14:46.714Z,101617.22
2018-09-06T18:17:15.649Z,101618.43
2018-09-06T18:19:44.603Z,101625.55
2018-09-06T18:22:13.548Z,101626.28
2018-09-06T18:24:42.507Z,101626.18
2018-09-06T18:27:11.404Z,101631.09
2018-09-06T18:29:40.240Z,101624.22
2018-09-06T18:32:09.125Z,101627.77
2018-09-06T18:34:37.982Z,101630.34
2018-09-06T18:37:06.942Z,101628.12
2018-09-06T18:39:35.760Z,101633.77
2018-09-06T18:42:05.273Z,101631.06
2018-09-06T18:44:34.087Z,101622.97
2018-09-06T18:47:03.793Z,101624.70
2018-09-06T18:49:32.652Z,101622.38
2018-09-06T18:52:01.594Z,101628.61
2018-09-06T18:54:30.402Z,101628.86
2018-09-06T18:56:59.273Z,101632.91
2018-09-06T18:59:28.174Z,101630.97
2018-09-06T19:01:57.043Z,101626.78
2018-09-06T19:04:25.946Z,101633.42
2018-09-06T19:06:54.757Z,101598.72
2018-09-06T19:09:23.651Z,101631.31
2018-09-06T19:11:52.517Z,101631.22
2018-09-06T19:14:21.306Z,101634.16
2018-09-06T19:16:50.152Z,101635.37
2018-09-06T19:19:19.208Z,101640.14
2018-09-06T19:21:48.183Z,101638.80
2018-09-06T19:24:16.991Z,101636.48
2018-09-06T19:26:45.788Z,101631.80
2018-09-06T19:29:14.690Z,101632.43
2018-09-06T19:31:43.585Z,101637.69
2018-09-06T19:34:12.516Z,101630.31
2018-09-06T19:36:41.331Z,101634.16
2018-09-06T19:39:12.275Z,101634.88
2018-09-06T19:41:41.835Z,101630.59
2018-09-06T19:44:10.714Z,101630.48
2018-09-06T19:46:39.599Z,101629.38
2018-09-06T19:49:08.488Z,101634.02
2018-09-06T19:51:37.291Z,101627.50
2018-09-06T19:54:06.171Z,101630.09
2018-09-06T19:56:35.052Z,101630.72
2018-09-06T19:59:04.410Z,101628.74
2018-09-06T20:01:33.272Z,101629.95
2018-09-06T20:04:03.074Z,101631.54
2018-09-06T20:06:32.789Z,101621.47
2018-09-06T20:09:01.564Z,101621.84
2018-09-06T20:11:30.414Z,101622.08
2018-09-06T20:13:59.232Z,101624.53
2018-09-06T20:16:28.102Z,101623.42
2018-09-06T20:18:56.985Z,101619.75
2018-09-06T20:21:25.811Z,101620.95
2018-09-06T20:23:55.085Z,101619.61
2018-09-06T20:26:23.889Z,101620.81
2018-09-06T20:28:52.800Z,101621.20
2018-09-06T20:31:21.677Z,101618.98
2018-09-06T20:33:50.626Z,101620.70
2018-09-06T20:36:19.441Z,101618.49
2018-09-06T20:38:48.235Z,101621.05
2018-09-06T20:41:17.034Z,101613.95
2018-09-06T20:43:45.939Z,101612.47
2018-09-06T20:46:14.765Z,101607.55
2018-09-06T20:48:43.603Z,101603.39
2018-09-06T20:51:12.467Z,101607.55
2018-09-06T20:53:41.271Z,101609.28
2018-09-06T20:56:10.076Z,101615.89
2018-09-06T20:58:38.980Z,101604.11
2018-09-06T21:01:07.793Z,101601.30
2018-09-06T21:03:36.580Z,101607.91
2018-09-06T21:06:05.329Z,101609.64
2018-09-06T21:08:34.237Z,101613.17
2018-09-06T21:11:03.051Z,101608.63
2018-09-06T21:13:31.887Z,101612.69
2018-09-06T21:16:00.723Z,101606.31
2018-09-06T21:18:29.532Z,101604.47
2018-09-06T21:20:58.375Z,101599.90
2018-09-06T21:23:27.173Z,101601.14
2018-09-06T21:25:55.962Z,101601.14
2018-09-06T21:28:24.761Z,101597.09
2018-09-06T21:30:53.800Z,101601.48
2018-09-06T21:33:22.654Z,101604.19
2018-09-06T21:35:53.401Z,101601.14
2018-09-06T21:38:22.258Z,101602.98
2018-09-06T21:40:50.984Z,101603.47
2018-09-06T21:43:19.918Z,101600.91
2018-09-06T21:45:48.818Z,101600.42
2018-09-06T21:48:17.609Z,101593.15
2018-09-06T21:50:46.403Z,101596.48
2018-09-06T21:53:15.214Z,101594.16
2018-09-06T21:55:44.030Z,101598.20
2018-09-06T21:58:13.398Z,101599.18
2018-09-06T22:00:42.173Z,101599.18
2018-09-06T22:03:16.163Z,101596.48
2018-09-06T22:05:44.917Z,101593.05
2018-09-06T22:08:13.706Z,101593.05
2018-09-06T22:10:42.527Z,101600.67
2018-09-06T22:13:11.458Z,101600.67
2018-09-06T22:15:40.233Z,101602.02
2018-09-06T22:18:09.974Z,101601.64
2018-09-06T22:20:38.892Z,101603.86
2018-09-06T22:23:08.065Z,101592.19
2018-09-06T22:25:36.883Z,101594.03
2018-09-06T22:28:06.015Z,101590.84
2018-09-06T22:30:34.903Z,101588.28
2018-09-06T22:33:04.634Z,101589.63
2018-09-06T22:35:33.706Z,101591.84
2018-09-06T22:38:02.700Z,101585.69
2018-09-06T22:40:31.758Z,101592.09
2018-09-06T22:43:00.758Z,101588.05
2018-09-06T22:45:29.750Z,101592.09
2018-09-06T22:47:58.733Z,101581.89
2018-09-06T22:50:28.664Z,101581.55
2018-09-06T22:52:57.722Z,101575.42
2018-09-06T22:55:26.741Z,101573.70
2018-09-06T22:57:55.744Z,101567.57
2018-09-06T23:00:28.982Z,101572.97
2018-09-06T23:03:03.444Z,101574.44
2018-09-06T23:05:33.126Z,101574.58
2018-09-06T23:08:02.606Z,101571.16
2018-09-06T23:10:31.568Z,101579.73
2018-09-06T23:13:00.500Z,101574.97
2018-09-06T23:15:29.365Z,101569.19
2018-09-06T23:17:58.392Z,101573.38
2018-09-06T23:20:27.389Z,101573.00
2018-09-06T23:22:56.106Z,101576.67
2018-09-06T23:25:24.954Z,101573.73
2018-09-06T23:27:54.028Z,101574.26
2018-09-06T23:30:23.224Z,101572.16
2018-09-06T23:32:52.145Z,101563.56
2018-09-06T23:35:21.149Z,101562.84
2018-09-06T23:37:50.070Z,101558.80
2018-09-06T23:40:18.978Z,101558.07
2018-09-06T23:42:47.956Z,101551.81
2018-09-06T23:45:16.949Z,101552.78
2018-09-06T23:47:45.998Z,101551.57
2018-09-06T23:50:15.070Z,101548.39
2018-09-06T23:52:44.088Z,101550.33
2018-09-06T23:55:13.053Z,101549.50
2018-09-06T23:57:42.085Z,101550.85
